sensor_id;sensor_type;location;lat;lon;timestamp;P1;durP1;ratioP1;P2;durP2;ratioP2
57744;SDS011;58941;50.168;4.410;2023-12-04T00:01:31;2.35;;;1.90;;
57744;SDS011;58941;50.168;4.410;2023-12-04T00:03:57;2.53;;;1.90;;
57744;SDS011;58941;50.168;4.410;2023-12-04T00:06:22;2.30;;;2.10;;
57744;SDS011;58941;50.168;4.410;2023-12-04T00:08:48;2.70;;;2.05;;
57744;SDS011;58941;50.168;4.410;2023-12-04T00:11:13;2.85;;;1.92;;
57744;SDS011;58941;50.168;4.410;2023-12-04T00:13:39;2.80;;;2.08;;
57744;SDS011;58941;50.168;4.410;2023-12-04T00:16:04;2.17;;;1.67;;
57744;SDS011;58941;50.168;4.410;2023-12-04T00:18:31;2.30;;;2.00;;
57744;SDS011;58941;50.168;4.410;2023-12-04T00:20:56;3.50;;;2.42;;
57744;SDS011;58941;50.168;4.410;2023-12-04T00:23:22;3.80;;;2.45;;
57744;SDS011;58941;50.168;4.410;2023-12-04T00:25:47;3.03;;;2.00;;
57744;SDS011;58941;50.168;4.410;2023-12-04T00:28:13;2.20;;;2.00;;
57744;SDS011;58941;50.168;4.410;2023-12-04T00:30:38;2.80;;;1.85;;
57744;SDS011;58941;50.168;4.410;2023-12-04T00:33:04;2.38;;;2.00;;
57744;SDS011;58941;50.168;4.410;2023-12-04T00:35:29;3.28;;;2.10;;
57744;SDS011;58941;50.168;4.410;2023-12-04T00:37:55;2.45;;;1.85;;
57744;SDS011;58941;50.168;4.410;2023-12-04T00:40:20;2.10;;;1.90;;
57744;SDS011;58941;50.168;4.410;2023-12-04T00:42:46;2.65;;;2.20;;
57744;SDS011;58941;50.168;4.410;2023-12-04T00:45:11;2.42;;;1.80;;
57744;SDS011;58941;50.168;4.410;2023-12-04T00:47:37;2.88;;;2.20;;
57744;SDS011;58941;50.168;4.410;2023-12-04T00:50:02;1.98;;;1.77;;
57744;SDS011;58941;50.168;4.410;2023-12-04T00:52:28;3.30;;;2.30;;
57744;SDS011;58941;50.168;4.410;2023-12-04T00:54:54;2.45;;;1.90;;
57744;SDS011;58941;50.168;4.410;2023-12-04T00:57:19;3.00;;;2.22;;
57744;SDS011;58941;50.168;4.410;2023-12-04T00:59:45;2.45;;;1.70;;
57744;SDS011;58941;50.168;4.410;2023-12-04T01:02:10;2.53;;;1.90;;
57744;SDS011;58941;50.168;4.410;2023-12-04T01:04:36;2.15;;;1.52;;
57744;SDS011;58941;50.168;4.410;2023-12-04T01:07:01;2.33;;;1.90;;
57744;SDS011;58941;50.168;4.410;2023-12-04T01:09:27;3.33;;;2.47;;
57744;SDS011;58941;50.168;4.410;2023-12-04T01:11:55;2.65;;;2.08;;
57744;SDS011;58941;50.168;4.410;2023-12-04T01:14:21;3.60;;;2.38;;
57744;SDS011;58941;50.168;4.410;2023-12-04T01:16:46;3.30;;;2.35;;
57744;SDS011;58941;50.168;4.410;2023-12-04T01:19:12;2.63;;;2.05;;
57744;SDS011;58941;50.168;4.410;2023-12-04T01:21:37;2.00;;;1.80;;
57744;SDS011;58941;50.168;4.410;2023-12-04T01:24:03;2.67;;;1.80;;
57744;SDS011;58941;50.168;4.410;2023-12-04T01:26:28;3.15;;;2.30;;
57744;SDS011;58941;50.168;4.410;2023-12-04T01:28:54;2.55;;;2.10;;
57744;SDS011;58941;50.168;4.410;2023-12-04T01:31:20;2.20;;;1.70;;
57744;SDS011;58941;50.168;4.410;2023-12-04T01:33:46;2.22;;;1.80;;
57744;SDS011;58941;50.168;4.410;2023-12-04T01:36:11;2.90;;;2.10;;
57744;SDS011;58941;50.168;4.410;2023-12-04T01:38:37;2.35;;;1.80;;
57744;SDS011;58941;50.168;4.410;2023-12-04T01:41:03;3.35;;;1.80;;
57744;SDS011;58941;50.168;4.410;2023-12-04T01:43:28;2.22;;;2.03;;
57744;SDS011;58941;50.168;4.410;2023-12-04T01:45:54;2.08;;;1.80;;
57744;SDS011;58941;50.168;4.410;2023-12-04T01:48:20;1.67;;;1.50;;
57744;SDS011;58941;50.168;4.410;2023-12-04T01:50:45;1.73;;;1.60;;
57744;SDS011;58941;50.168;4.410;2023-12-04T01:53:11;2.28;;;1.73;;
57744;SDS011;58941;50.168;4.410;2023-12-04T01:55:37;2.25;;;1.98;;
57744;SDS011;58941;50.168;4.410;2023-12-04T01:58:03;2.10;;;1.67;;
57744;SDS011;58941;50.168;4.410;2023-12-04T02:00:30;2.35;;;2.00;;
57744;SDS011;58941;50.168;4.410;2023-12-04T02:02:56;2.20;;;1.67;;
57744;SDS011;58941;50.168;4.410;2023-12-04T02:05:21;1.73;;;1.63;;
57744;SDS011;58941;50.168;4.410;2023-12-04T02:07:48;1.80;;;1.50;;
57744;SDS011;58941;50.168;4.410;2023-12-04T02:10:14;2.25;;;1.80;;
57744;SDS011;58941;50.168;4.410;2023-12-04T02:12:39;1.77;;;1.50;;
57744;SDS011;58941;50.168;4.410;2023-12-04T02:15:05;1.85;;;1.48;;
57744;SDS011;58941;50.168;4.410;2023-12-04T02:17:31;3.05;;;2.10;;
57744;SDS011;58941;50.168;4.410;2023-12-04T02:19:57;1.98;;;1.80;;
57744;SDS011;58941;50.168;4.410;2023-12-04T02:22:23;2.80;;;1.70;;
57744;SDS011;58941;50.168;4.410;2023-12-04T02:24:49;1.95;;;1.65;;
57744;SDS011;58941;50.168;4.410;2023-12-04T02:27:18;2.58;;;1.70;;
57744;SDS011;58941;50.168;4.410;2023-12-04T02:29:47;2.00;;;1.70;;
57744;SDS011;58941;50.168;4.410;2023-12-04T02:32:17;1.95;;;1.75;;
57744;SDS011;58941;50.168;4.410;2023-12-04T02:34:43;2.15;;;1.75;;
57744;SDS011;58941;50.168;4.410;2023-12-04T02:37:10;2.53;;;1.70;;
57744;SDS011;58941;50.168;4.410;2023-12-04T02:39:36;2.03;;;1.58;;
57744;SDS011;58941;50.168;4.410;2023-12-04T02:42:02;2.17;;;1.70;;
57744;SDS011;58941;50.168;4.410;2023-12-04T02:44:28;2.00;;;1.65;;
57744;SDS011;58941;50.168;4.410;2023-12-04T02:46:53;2.10;;;1.65;;
57744;SDS011;58941;50.168;4.410;2023-12-04T02:49:19;1.92;;;1.70;;
57744;SDS011;58941;50.168;4.410;2023-12-04T02:51:44;1.90;;;1.73;;
57744;SDS011;58941;50.168;4.410;2023-12-04T02:54:10;1.80;;;1.48;;
57744;SDS011;58941;50.168;4.410;2023-12-04T02:56:36;3.15;;;2.00;;
57744;SDS011;58941;50.168;4.410;2023-12-04T02:59:01;2.17;;;1.73;;
57744;SDS011;58941;50.168;4.410;2023-12-04T03:01:27;2.45;;;1.98;;
57744;SDS011;58941;50.168;4.410;2023-12-04T03:03:52;1.92;;;1.70;;
57744;SDS011;58941;50.168;4.410;2023-12-04T03:06:18;2.00;;;1.70;;
57744;SDS011;58941;50.168;4.410;2023-12-04T03:08:43;3.30;;;1.90;;
57744;SDS011;58941;50.168;4.410;2023-12-04T03:11:09;2.00;;;1.80;;
57744;SDS011;58941;50.168;4.410;2023-12-04T03:13:34;1.95;;;1.60;;
57744;SDS011;58941;50.168;4.410;2023-12-04T03:16:00;2.72;;;1.83;;
57744;SDS011;58941;50.168;4.410;2023-12-04T03:18:25;1.90;;;1.60;;
57744;SDS011;58941;50.168;4.410;2023-12-04T03:20:51;3.05;;;1.70;;
57744;SDS011;58941;50.168;4.410;2023-12-04T03:23:19;2.13;;;1.45;;
57744;SDS011;58941;50.168;4.410;2023-12-04T03:25:44;2.20;;;1.60;;
57744;SDS011;58941;50.168;4.410;2023-12-04T03:28:10;1.67;;;1.58;;
57744;SDS011;58941;50.168;4.410;2023-12-04T03:30:35;2.35;;;1.67;;
57744;SDS011;58941;50.168;4.410;2023-12-04T03:33:01;2.42;;;1.73;;
57744;SDS011;58941;50.168;4.410;2023-12-04T03:35:26;1.85;;;1.50;;
57744;SDS011;58941;50.168;4.410;2023-12-04T03:37:52;2.05;;;1.65;;
57744;SDS011;58941;50.168;4.410;2023-12-04T03:40:17;1.60;;;1.50;;
57744;SDS011;58941;50.168;4.410;2023-12-04T03:42:43;1.90;;;1.70;;
57744;SDS011;58941;50.168;4.410;2023-12-04T03:45:09;1.88;;;1.67;;
57744;SDS011;58941;50.168;4.410;2023-12-04T03:47:34;1.92;;;1.73;;
57744;SDS011;58941;50.168;4.410;2023-12-04T03:50:00;1.70;;;1.60;;
57744;SDS011;58941;50.168;4.410;2023-12-04T03:52:25;2.00;;;1.60;;
57744;SDS011;58941;50.168;4.410;2023-12-04T03:54:51;2.65;;;1.52;;
57744;SDS011;58941;50.168;4.410;2023-12-04T03:57:16;1.70;;;1.60;;
57744;SDS011;58941;50.168;4.410;2023-12-04T03:59:43;2.85;;;1.90;;
57744;SDS011;58941;50.168;4.410;2023-12-04T04:02:08;2.70;;;1.90;;
57744;SDS011;58941;50.168;4.410;2023-12-04T04:04:34;2.05;;;1.70;;
57744;SDS011;58941;50.168;4.410;2023-12-04T04:06:59;2.05;;;1.60;;
57744;SDS011;58941;50.168;4.410;2023-12-04T04:09:25;1.98;;;1.70;;
57744;SDS011;58941;50.168;4.410;2023-12-04T04:11:50;1.98;;;1.42;;
57744;SDS011;58941;50.168;4.410;2023-12-04T04:14:16;1.90;;;1.70;;
57744;SDS011;58941;50.168;4.410;2023-12-04T04:16:41;1.80;;;1.67;;
57744;SDS011;58941;50.168;4.410;2023-12-04T04:19:06;2.63;;;1.60;;
57744;SDS011;58941;50.168;4.410;2023-12-04T04:21:32;1.90;;;1.77;;
57744;SDS011;58941;50.168;4.410;2023-12-04T04:23:59;1.83;;;1.60;;
57744;SDS011;58941;50.168;4.410;2023-12-04T04:26:24;1.90;;;1.52;;
57744;SDS011;58941;50.168;4.410;2023-12-04T04:28:50;1.73;;;1.58;;
57744;SDS011;58941;50.168;4.410;2023-12-04T04:31:15;2.60;;;1.80;;
57744;SDS011;58941;50.168;4.410;2023-12-04T04:33:41;1.92;;;1.63;;
57744;SDS011;58941;50.168;4.410;2023-12-04T04:36:08;2.00;;;1.67;;
57744;SDS011;58941;50.168;4.410;2023-12-04T04:38:34;2.08;;;1.80;;
57744;SDS011;58941;50.168;4.410;2023-12-04T04:41:00;1.92;;;1.60;;
57744;SDS011;58941;50.168;4.410;2023-12-04T04:43:25;1.75;;;1.60;;
57744;SDS011;58941;50.168;4.410;2023-12-04T04:45:50;2.05;;;1.65;;
57744;SDS011;58941;50.168;4.410;2023-12-04T04:48:16;1.75;;;1.58;;
57744;SDS011;58941;50.168;4.410;2023-12-04T04:50:41;1.88;;;1.73;;
57744;SDS011;58941;50.168;4.410;2023-12-04T04:53:07;2.10;;;1.60;;
57744;SDS011;58941;50.168;4.410;2023-12-04T04:55:33;1.88;;;1.58;;
57744;SDS011;58941;50.168;4.410;2023-12-04T04:57:58;1.65;;;1.50;;
57744;SDS011;58941;50.168;4.410;2023-12-04T05:00:24;2.40;;;1.50;;
57744;SDS011;58941;50.168;4.410;2023-12-04T05:02:50;1.85;;;1.63;;
57744;SDS011;58941;50.168;4.410;2023-12-04T05:05:16;1.85;;;1.60;;
57744;SDS011;58941;50.168;4.410;2023-12-04T05:07:41;1.58;;;1.48;;
57744;SDS011;58941;50.168;4.410;2023-12-04T05:10:07;1.70;;;1.60;;
57744;SDS011;58941;50.168;4.410;2023-12-04T05:12:32;2.05;;;1.42;;
57744;SDS011;58941;50.168;4.410;2023-12-04T05:14:58;1.50;;;1.40;;
57744;SDS011;58941;50.168;4.410;2023-12-04T05:17:23;1.90;;;1.70;;
57744;SDS011;58941;50.168;4.410;2023-12-04T05:19:49;1.67;;;1.58;;
57744;SDS011;58941;50.168;4.410;2023-12-04T05:22:14;1.63;;;1.48;;
57744;SDS011;58941;50.168;4.410;2023-12-04T05:24:40;1.63;;;1.52;;
57744;SDS011;58941;50.168;4.410;2023-12-04T05:27:05;1.58;;;1.45;;
57744;SDS011;58941;50.168;4.410;2023-12-04T05:29:31;1.63;;;1.50;;
57744;SDS011;58941;50.168;4.410;2023-12-04T05:31:56;1.50;;;1.40;;
57744;SDS011;58941;50.168;4.410;2023-12-04T05:34:23;1.60;;;1.50;;
57744;SDS011;58941;50.168;4.410;2023-12-04T05:36:48;1.90;;;1.50;;
57744;SDS011;58941;50.168;4.410;2023-12-04T05:39:13;1.85;;;1.63;;
57744;SDS011;58941;50.168;4.410;2023-12-04T05:41:39;1.60;;;1.45;;
57744;SDS011;58941;50.168;4.410;2023-12-04T05:44:04;1.85;;;1.48;;
57744;SDS011;58941;50.168;4.410;2023-12-04T05:46:30;2.30;;;1.65;;
57744;SDS011;58941;50.168;4.410;2023-12-04T05:48:55;1.70;;;1.42;;
57744;SDS011;58941;50.168;4.410;2023-12-04T05:51:21;1.40;;;1.30;;
57744;SDS011;58941;50.168;4.410;2023-12-04T05:53:47;1.73;;;1.55;;
57744;SDS011;58941;50.168;4.410;2023-12-04T05:56:13;1.60;;;1.33;;
57744;SDS011;58941;50.168;4.410;2023-12-04T05:58:38;2.00;;;1.45;;
57744;SDS011;58941;50.168;4.410;2023-12-04T06:01:04;1.52;;;1.42;;
57744;SDS011;58941;50.168;4.410;2023-12-04T06:03:31;1.77;;;1.52;;
57744;SDS011;58941;50.168;4.410;2023-12-04T06:05:57;1.60;;;1.42;;
57744;SDS011;58941;50.168;4.410;2023-12-04T06:08:23;1.75;;;1.65;;
57744;SDS011;58941;50.168;4.410;2023-12-04T06:10:48;1.80;;;1.70;;
57744;SDS011;58941;50.168;4.410;2023-12-04T06:13:14;2.22;;;1.30;;
57744;SDS011;58941;50.168;4.410;2023-12-04T06:15:39;1.88;;;1.42;;
57744;SDS011;58941;50.168;4.410;2023-12-04T06:18:05;1.98;;;1.70;;
57744;SDS011;58941;50.168;4.410;2023-12-04T06:20:30;2.65;;;1.50;;
57744;SDS011;58941;50.168;4.410;2023-12-04T06:22:56;1.88;;;1.52;;
57744;SDS011;58941;50.168;4.410;2023-12-04T06:25:21;1.55;;;1.45;;
57744;SDS011;58941;50.168;4.410;2023-12-04T06:27:48;1.65;;;1.50;;
57744;SDS011;58941;50.168;4.410;2023-12-04T06:30:13;1.70;;;1.60;;
57744;SDS011;58941;50.168;4.410;2023-12-04T06:32:39;2.10;;;1.60;;
57744;SDS011;58941;50.168;4.410;2023-12-04T06:35:05;1.60;;;1.50;;
57744;SDS011;58941;50.168;4.410;2023-12-04T06:37:31;1.40;;;1.30;;
57744;SDS011;58941;50.168;4.410;2023-12-04T06:39:57;2.22;;;1.55;;
57744;SDS011;58941;50.168;4.410;2023-12-04T06:42:25;2.40;;;1.80;;
57744;SDS011;58941;50.168;4.410;2023-12-04T06:44:50;1.80;;;1.50;;
57744;SDS011;58941;50.168;4.410;2023-12-04T06:47:17;1.58;;;1.48;;
57744;SDS011;58941;50.168;4.410;2023-12-04T06:49:43;1.88;;;1.50;;
57744;SDS011;58941;50.168;4.410;2023-12-04T06:52:09;1.70;;;1.60;;
57744;SDS011;58941;50.168;4.410;2023-12-04T06:54:34;2.00;;;1.35;;
57744;SDS011;58941;50.168;4.410;2023-12-04T06:56:59;1.50;;;1.40;;
57744;SDS011;58941;50.168;4.410;2023-12-04T06:59:25;1.65;;;1.52;;
57744;SDS011;58941;50.168;4.410;2023-12-04T07:01:51;1.55;;;1.40;;
57744;SDS011;58941;50.168;4.410;2023-12-04T07:04:17;2.28;;;1.38;;
57744;SDS011;58941;50.168;4.410;2023-12-04T07:06:46;2.00;;;1.60;;
57744;SDS011;58941;50.168;4.410;2023-12-04T07:09:12;1.35;;;1.23;;
57744;SDS011;58941;50.168;4.410;2023-12-04T07:11:38;1.60;;;1.50;;
57744;SDS011;58941;50.168;4.410;2023-12-04T07:14:03;2.00;;;1.60;;
57744;SDS011;58941;50.168;4.410;2023-12-04T07:16:29;1.88;;;1.33;;
57744;SDS011;58941;50.168;4.410;2023-12-04T07:18:55;1.50;;;1.40;;
57744;SDS011;58941;50.168;4.410;2023-12-04T07:21:21;2.65;;;1.65;;
57744;SDS011;58941;50.168;4.410;2023-12-04T07:23:46;2.08;;;1.30;;
57744;SDS011;58941;50.168;4.410;2023-12-04T07:26:12;1.50;;;1.40;;
57744;SDS011;58941;50.168;4.410;2023-12-04T07:28:38;1.60;;;1.50;;
57744;SDS011;58941;50.168;4.410;2023-12-04T07:31:03;1.70;;;1.50;;
57744;SDS011;58941;50.168;4.410;2023-12-04T07:33:29;1.67;;;1.35;;
57744;SDS011;58941;50.168;4.410;2023-12-04T07:35:54;2.22;;;1.50;;
57744;SDS011;58941;50.168;4.410;2023-12-04T07:38:20;1.63;;;1.52;;
57744;SDS011;58941;50.168;4.410;2023-12-04T07:40:46;1.70;;;1.60;;
57744;SDS011;58941;50.168;4.410;2023-12-04T07:43:11;1.40;;;1.30;;
57744;SDS011;58941;50.168;4.410;2023-12-04T07:45:39;2.78;;;1.35;;
57744;SDS011;58941;50.168;4.410;2023-12-04T07:48:05;1.85;;;1.73;;
57744;SDS011;58941;50.168;4.410;2023-12-04T07:50:30;1.45;;;1.30;;
57744;SDS011;58941;50.168;4.410;2023-12-04T07:52:56;2.33;;;1.50;;
57744;SDS011;58941;50.168;4.410;2023-12-04T07:55:21;1.48;;;1.38;;
57744;SDS011;58941;50.168;4.410;2023-12-04T07:57:47;2.25;;;1.25;;
57744;SDS011;58941;50.168;4.410;2023-12-04T08:00:13;3.05;;;1.40;;
57744;SDS011;58941;50.168;4.410;2023-12-04T08:02:43;1.63;;;1.50;;
57744;SDS011;58941;50.168;4.410;2023-12-04T08:05:10;2.22;;;1.58;;
57744;SDS011;58941;50.168;4.410;2023-12-04T08:07:35;1.80;;;1.48;;
57744;SDS011;58941;50.168;4.410;2023-12-04T08:10:01;2.20;;;1.60;;
57744;SDS011;58941;50.168;4.410;2023-12-04T08:12:27;1.60;;;1.50;;
57744;SDS011;58941;50.168;4.410;2023-12-04T08:14:52;1.50;;;1.40;;
57744;SDS011;58941;50.168;4.410;2023-12-04T08:17:18;2.75;;;1.60;;
57744;SDS011;58941;50.168;4.410;2023-12-04T08:19:44;1.77;;;1.27;;
57744;SDS011;58941;50.168;4.410;2023-12-04T08:22:09;2.13;;;1.30;;
57744;SDS011;58941;50.168;4.410;2023-12-04T08:24:35;2.80;;;1.50;;
57744;SDS011;58941;50.168;4.410;2023-12-04T08:27:01;1.60;;;1.40;;
57744;SDS011;58941;50.168;4.410;2023-12-04T08:29:26;1.25;;;1.15;;
57744;SDS011;58941;50.168;4.410;2023-12-04T08:31:52;4.22;;;1.52;;
57744;SDS011;58941;50.168;4.410;2023-12-04T08:34:17;1.40;;;1.30;;
57744;SDS011;58941;50.168;4.410;2023-12-04T08:36:43;1.85;;;1.35;;
57744;SDS011;58941;50.168;4.410;2023-12-04T08:39:08;2.80;;;1.40;;
57744;SDS011;58941;50.168;4.410;2023-12-04T08:41:34;1.73;;;1.25;;
57744;SDS011;58941;50.168;4.410;2023-12-04T08:43:59;1.58;;;1.45;;
57744;SDS011;58941;50.168;4.410;2023-12-04T08:46:26;2.40;;;1.42;;
57744;SDS011;58941;50.168;4.410;2023-12-04T08:48:51;1.55;;;1.20;;
57744;SDS011;58941;50.168;4.410;2023-12-04T08:51:17;2.45;;;1.40;;
57744;SDS011;58941;50.168;4.410;2023-12-04T08:53:42;1.38;;;1.25;;
57744;SDS011;58941;50.168;4.410;2023-12-04T08:56:08;1.60;;;1.38;;
57744;SDS011;58941;50.168;4.410;2023-12-04T08:58:34;1.58;;;1.27;;
57744;SDS011;58941;50.168;4.410;2023-12-04T09:01:00;4.30;;;1.48;;
57744;SDS011;58941;50.168;4.410;2023-12-04T09:03:25;2.10;;;1.60;;
57744;SDS011;58941;50.168;4.410;2023-12-04T09:05:51;2.78;;;1.30;;
57744;SDS011;58941;50.168;4.410;2023-12-04T09:08:17;2.53;;;1.35;;
57744;SDS011;58941;50.168;4.410;2023-12-04T09:10:44;1.35;;;1.20;;
57744;SDS011;58941;50.168;4.410;2023-12-04T09:13:11;1.77;;;1.25;;
57744;SDS011;58941;50.168;4.410;2023-12-04T09:15:37;1.27;;;1.17;;
57744;SDS011;58941;50.168;4.410;2023-12-04T09:18:03;2.25;;;1.33;;
57744;SDS011;58941;50.168;4.410;2023-12-04T09:20:29;1.98;;;1.50;;
57744;SDS011;58941;50.168;4.410;2023-12-04T09:22:54;2.25;;;1.45;;
57744;SDS011;58941;50.168;4.410;2023-12-04T09:25:20;2.40;;;1.60;;
57744;SDS011;58941;50.168;4.410;2023-12-04T09:27:46;1.85;;;1.13;;
57744;SDS011;58941;50.168;4.410;2023-12-04T09:30:11;2.63;;;1.65;;
57744;SDS011;58941;50.168;4.410;2023-12-04T09:32:38;1.67;;;1.38;;
57744;SDS011;58941;50.168;4.410;2023-12-04T09:35:04;2.63;;;1.30;;
57744;SDS011;58941;50.168;4.410;2023-12-04T09:37:30;2.05;;;1.50;;
57744;SDS011;58941;50.168;4.410;2023-12-04T09:39:56;1.35;;;1.20;;
57744;SDS011;58941;50.168;4.410;2023-12-04T09:42:22;1.50;;;1.35;;
57744;SDS011;58941;50.168;4.410;2023-12-04T09:44:48;1.27;;;1.05;;
57744;SDS011;58941;50.168;4.410;2023-12-04T09:47:17;1.90;;;1.50;;
57744;SDS011;58941;50.168;4.410;2023-12-04T09:49:43;2.22;;;1.42;;
57744;SDS011;58941;50.168;4.410;2023-12-04T09:52:10;1.83;;;1.33;;
57744;SDS011;58941;50.168;4.410;2023-12-04T09:54:35;2.88;;;1.50;;
57744;SDS011;58941;50.168;4.410;2023-12-04T09:57:01;1.42;;;1.10;;
57744;SDS011;58941;50.168;4.410;2023-12-04T09:59:26;2.17;;;1.33;;
57744;SDS011;58941;50.168;4.410;2023-12-04T10:01:54;2.72;;;1.50;;
57744;SDS011;58941;50.168;4.410;2023-12-04T10:04:20;1.40;;;1.30;;
57744;SDS011;58941;50.168;4.410;2023-12-04T10:06:46;2.45;;;1.20;;
57744;SDS011;58941;50.168;4.410;2023-12-04T10:09:13;1.65;;;1.50;;
57744;SDS011;58941;50.168;4.410;2023-12-04T10:11:41;1.60;;;1.50;;
57744;SDS011;58941;50.168;4.410;2023-12-04T10:14:13;2.28;;;1.40;;
57744;SDS011;58941;50.168;4.410;2023-12-04T10:16:39;1.50;;;1.40;;
57744;SDS011;58941;50.168;4.410;2023-12-04T10:19:23;2.38;;;1.48;;
57744;SDS011;58941;50.168;4.410;2023-12-04T10:21:51;2.17;;;1.40;;
57744;SDS011;58941;50.168;4.410;2023-12-04T10:24:35;1.90;;;1.50;;
57744;SDS011;58941;50.168;4.410;2023-12-04T10:27:01;2.75;;;1.50;;
57744;SDS011;58941;50.168;4.410;2023-12-04T10:29:30;2.03;;;1.40;;
57744;SDS011;58941;50.168;4.410;2023-12-04T10:32:04;2.40;;;1.45;;
57744;SDS011;58941;50.168;4.410;2023-12-04T10:34:30;2.33;;;1.30;;
57744;SDS011;58941;50.168;4.410;2023-12-04T10:36:59;2.58;;;1.48;;
57744;SDS011;58941;50.168;4.410;2023-12-04T10:39:25;2.63;;;1.38;;
57744;SDS011;58941;50.168;4.410;2023-12-04T10:42:00;2.05;;;1.30;;
57744;SDS011;58941;50.168;4.410;2023-12-04T10:44:31;1.75;;;1.38;;
57744;SDS011;58941;50.168;4.410;2023-12-04T10:46:57;2.00;;;1.40;;
57744;SDS011;58941;50.168;4.410;2023-12-04T10:49:25;3.15;;;1.67;;
57744;SDS011;58941;50.168;4.410;2023-12-04T10:51:51;1.73;;;1.25;;
57744;SDS011;58941;50.168;4.410;2023-12-04T10:54:18;1.88;;;1.67;;
57744;SDS011;58941;50.168;4.410;2023-12-04T10:56:43;2.95;;;1.48;;
57744;SDS011;58941;50.168;4.410;2023-12-04T10:59:15;2.15;;;1.40;;
57744;SDS011;58941;50.168;4.410;2023-12-04T11:01:44;1.80;;;1.48;;
57744;SDS011;58941;50.168;4.410;2023-12-04T11:04:14;1.98;;;1.30;;
57744;SDS011;58941;50.168;4.410;2023-12-04T11:06:42;3.35;;;1.48;;
57744;SDS011;58941;50.168;4.410;2023-12-04T11:09:09;2.55;;;1.60;;
57744;SDS011;58941;50.168;4.410;2023-12-04T11:11:35;2.13;;;1.40;;
57744;SDS011;58941;50.168;4.410;2023-12-04T11:14:02;1.73;;;1.40;;
57744;SDS011;58941;50.168;4.410;2023-12-04T11:16:33;1.75;;;1.52;;
57744;SDS011;58941;50.168;4.410;2023-12-04T11:19:01;1.70;;;1.45;;
57744;SDS011;58941;50.168;4.410;2023-12-04T11:21:29;2.30;;;1.77;;
57744;SDS011;58941;50.168;4.410;2023-12-04T11:23:55;3.25;;;1.45;;
57744;SDS011;58941;50.168;4.410;2023-12-04T11:26:23;2.22;;;1.63;;
57744;SDS011;58941;50.168;4.410;2023-12-04T11:28:50;2.35;;;1.52;;
57744;SDS011;58941;50.168;4.410;2023-12-04T11:31:16;2.53;;;1.50;;
57744;SDS011;58941;50.168;4.410;2023-12-04T11:33:42;2.00;;;1.50;;
57744;SDS011;58941;50.168;4.410;2023-12-04T11:36:08;1.60;;;1.27;;
57744;SDS011;58941;50.168;4.410;2023-12-04T11:38:34;1.98;;;1.52;;
57744;SDS011;58941;50.168;4.410;2023-12-04T11:41:11;1.80;;;1.42;;
57744;SDS011;58941;50.168;4.410;2023-12-04T11:43:39;2.63;;;1.50;;
57744;SDS011;58941;50.168;4.410;2023-12-04T11:46:08;1.48;;;1.38;;
57744;SDS011;58941;50.168;4.410;2023-12-04T11:48:37;1.67;;;1.40;;
57744;SDS011;58941;50.168;4.410;2023-12-04T11:51:03;3.10;;;1.60;;
57744;SDS011;58941;50.168;4.410;2023-12-04T11:53:29;1.60;;;1.50;;
57744;SDS011;58941;50.168;4.410;2023-12-04T11:55:57;1.58;;;1.40;;
57744;SDS011;58941;50.168;4.410;2023-12-04T11:58:22;1.77;;;1.33;;
57744;SDS011;58941;50.168;4.410;2023-12-04T12:00:48;2.70;;;1.60;;
57744;SDS011;58941;50.168;4.410;2023-12-04T12:03:14;2.50;;;1.80;;
57744;SDS011;58941;50.168;4.410;2023-12-04T12:05:40;1.90;;;1.58;;
57744;SDS011;58941;50.168;4.410;2023-12-04T12:08:07;1.83;;;1.40;;
57744;SDS011;58941;50.168;4.410;2023-12-04T12:10:33;2.70;;;1.50;;
57744;SDS011;58941;50.168;4.410;2023-12-04T12:12:59;2.08;;;1.33;;
57744;SDS011;58941;50.168;4.410;2023-12-04T12:15:24;2.88;;;1.50;;
57744;SDS011;58941;50.168;4.410;2023-12-04T12:17:50;2.10;;;1.45;;
57744;SDS011;58941;50.168;4.410;2023-12-04T12:20:16;1.50;;;1.40;;
57744;SDS011;58941;50.168;4.410;2023-12-04T12:22:42;3.17;;;1.70;;
57744;SDS011;58941;50.168;4.410;2023-12-04T12:25:11;1.83;;;1.40;;
57744;SDS011;58941;50.168;4.410;2023-12-04T12:27:37;1.60;;;1.30;;
57744;SDS011;58941;50.168;4.410;2023-12-04T12:30:03;2.22;;;1.45;;
57744;SDS011;58941;50.168;4.410;2023-12-04T12:32:33;2.25;;;1.52;;
57744;SDS011;58941;50.168;4.410;2023-12-04T12:34:59;2.05;;;1.17;;
57744;SDS011;58941;50.168;4.410;2023-12-04T12:37:24;2.55;;;1.50;;
57744;SDS011;58941;50.168;4.410;2023-12-04T12:39:51;1.65;;;1.50;;
57744;SDS011;58941;50.168;4.410;2023-12-04T12:42:28;2.65;;;1.35;;
57744;SDS011;58941;50.168;4.410;2023-12-04T12:44:54;1.70;;;1.60;;
57744;SDS011;58941;50.168;4.410;2023-12-04T12:47:23;3.15;;;1.48;;
57744;SDS011;58941;50.168;4.410;2023-12-04T12:49:49;2.20;;;1.40;;
57744;SDS011;58941;50.168;4.410;2023-12-04T12:52:15;2.55;;;1.80;;
57744;SDS011;58941;50.168;4.410;2023-12-04T12:54:41;2.92;;;1.50;;
57744;SDS011;58941;50.168;4.410;2023-12-04T12:57:08;3.35;;;1.50;;
57744;SDS011;58941;50.168;4.410;2023-12-04T12:59:35;1.50;;;1.38;;
57744;SDS011;58941;50.168;4.410;2023-12-04T13:02:01;2.92;;;1.63;;
57744;SDS011;58941;50.168;4.410;2023-12-04T13:04:36;1.90;;;1.63;;
57744;SDS011;58941;50.168;4.410;2023-12-04T13:07:02;2.15;;;1.70;;
57744;SDS011;58941;50.168;4.410;2023-12-04T13:09:29;2.33;;;1.58;;
57744;SDS011;58941;50.168;4.410;2023-12-04T13:11:54;1.70;;;1.60;;
57744;SDS011;58941;50.168;4.410;2023-12-04T13:14:20;3.05;;;1.40;;
57744;SDS011;58941;50.168;4.410;2023-12-04T13:16:46;2.28;;;1.38;;
57744;SDS011;58941;50.168;4.410;2023-12-04T13:19:12;1.83;;;1.42;;
57744;SDS011;58941;50.168;4.410;2023-12-04T13:21:37;2.08;;;1.52;;
57744;SDS011;58941;50.168;4.410;2023-12-04T13:24:03;2.20;;;1.40;;
57744;SDS011;58941;50.168;4.410;2023-12-04T13:26:35;1.92;;;1.60;;
57744;SDS011;58941;50.168;4.410;2023-12-04T13:29:01;1.70;;;1.50;;
57744;SDS011;58941;50.168;4.410;2023-12-04T13:31:26;1.88;;;1.33;;
57744;SDS011;58941;50.168;4.410;2023-12-04T13:33:53;1.45;;;1.30;;
57744;SDS011;58941;50.168;4.410;2023-12-04T13:36:20;1.45;;;1.33;;
57744;SDS011;58941;50.168;4.410;2023-12-04T13:38:46;1.70;;;1.52;;
57744;SDS011;58941;50.168;4.410;2023-12-04T13:41:11;1.85;;;1.50;;
57744;SDS011;58941;50.168;4.410;2023-12-04T13:43:55;2.80;;;1.80;;
57744;SDS011;58941;50.168;4.410;2023-12-04T13:46:21;3.03;;;1.73;;
57744;SDS011;58941;50.168;4.410;2023-12-04T13:48:48;2.55;;;1.40;;
57744;SDS011;58941;50.168;4.410;2023-12-04T13:51:13;3.85;;;2.10;;
57744;SDS011;58941;50.168;4.410;2023-12-04T13:53:39;2.40;;;1.70;;
57744;SDS011;58941;50.168;4.410;2023-12-04T13:56:11;3.05;;;1.80;;
57744;SDS011;58941;50.168;4.410;2023-12-04T13:58:48;3.05;;;1.70;;
57744;SDS011;58941;50.168;4.410;2023-12-04T14:01:24;3.00;;;1.60;;
57744;SDS011;58941;50.168;4.410;2023-12-04T14:03:54;3.05;;;1.60;;
57744;SDS011;58941;50.168;4.410;2023-12-04T14:06:21;2.67;;;1.73;;
57744;SDS011;58941;50.168;4.410;2023-12-04T14:08:47;2.83;;;1.52;;
57744;SDS011;58941;50.168;4.410;2023-12-04T14:11:13;3.70;;;1.83;;
57744;SDS011;58941;50.168;4.410;2023-12-04T14:13:40;2.40;;;1.75;;
57744;SDS011;58941;50.168;4.410;2023-12-04T14:16:06;2.28;;;1.60;;
57744;SDS011;58941;50.168;4.410;2023-12-04T14:18:32;2.33;;;1.75;;
57744;SDS011;58941;50.168;4.410;2023-12-04T14:20:58;2.75;;;1.63;;
57744;SDS011;58941;50.168;4.410;2023-12-04T14:23:24;4.45;;;1.92;;
57744;SDS011;58941;50.168;4.410;2023-12-04T14:25:50;3.30;;;1.92;;
57744;SDS011;58941;50.168;4.410;2023-12-04T14:28:16;2.95;;;1.75;;
57744;SDS011;58941;50.168;4.410;2023-12-04T14:30:41;2.85;;;1.80;;
57744;SDS011;58941;50.168;4.410;2023-12-04T14:33:07;3.08;;;1.80;;
57744;SDS011;58941;50.168;4.410;2023-12-04T14:35:34;2.85;;;1.60;;
57744;SDS011;58941;50.168;4.410;2023-12-04T14:38:02;2.88;;;1.65;;
57744;SDS011;58941;50.168;4.410;2023-12-04T14:40:28;2.22;;;1.67;;
57744;SDS011;58941;50.168;4.410;2023-12-04T14:42:53;4.57;;;1.80;;